General Aviation Weather

Text Reports

Enter one or more of the following location identifiers separated by a space:

Zip Code, Four-Character ICAO or Three-Character IATA airport codes.

METAR - Aviation Routine Weather Report
YTRE - Taree,
Updated at 4:00 AM GMT on April 24, 2014 (2:00 PM EST):
METAR YTRE 240400Z AUTO 29005KT //// // NCD 31/09 Q1011
TAF - Terminal Area Forecast
YTRE - Taree,
Updated at 4:00 AM GMT on April 24, 2014 (2:00 PM EST):
TAF YTRE 240109Z 2402/2414 03010KT CAVOK
     FM240900 VRB03KT CAVOK=
Decoded:
ID: YTRE
REPORT TIME: 24  1: 9
VALID TIME: 24 April AT 02:00Z to 24 April AT 14:00Z.
INITIAL WX
   WINDS: 30 AT 10
   WEATHER: CAVOK
NEW WX STARTING: 09:00Z
   WIND: VARIABLE AT 3
   WEATHER: CAVOK
   COMMENTS: = 

INITIAL WX
   WEATHER: TAF_AMD_CYIO
   COMMENTS: 240132Z 2401/2413 23005KT 6SM -SN OVC030 
TEMPORARY WX FROM 01Z TO 13Z
   VISIBILITY: 2.0 MILES
   WEATHER: -SN_HZ
   CLOUDS: 25 OVC
   COMMENTS: RMK FCST BASED ON AUTO OBS. NXT FCST BY 240700Z= 

PIREP - Pilot Weather Report
YTRE - Taree,
Updated at 4:00 AM GMT on April 24, 2014 (2:00 PM EST):
No PIREP is currently available for this location.
AIRMET - Airmens Meteorological Information
YTRE - Taree,
Updated at 4:00 AM GMT on April 24, 2014 (2:00 PM EST):
No AIRMET is currently available for this location.
SIGMET - Significant Meteorological Information
YTRE - Taree,
Updated at 4:00 AM GMT on April 24, 2014 (2:00 PM EST):
No SIGMET is currently available for this location.
NOTAM - Notice to Airmen
YTRE - Taree,
Updated at 4:00 AM GMT on April 24, 2014 (2:00 PM EST):
No NOTAM is currently available for this location.
Forecast Area
YTRE - Taree,
Updated at 4:00 AM GMT on April 24, 2014 (2:00 PM EST):
No NOTAM is currently available for this location.
Aviation Weather Maps